Time;durP1;ratioP1;P1;durP2;ratioP2;P2;SDS_P1;SDS_P2;PMS_P1;PMS_P2;Temp;Humidity;BMP_temperature;BMP_pressure;BME280_temperature;BME280_humidity;BME280_pressure;Samples;Min_cycle;Max_cycle;Signal;HPM_P1;HPM_P2
2023/08/06 00:00:40;;;;;;;3.10;2.90;;;;;;;;;;5051884;28;21751;-63
2023/08/06 00:03:08;;;;;;;2.80;2.60;;;;;;;;;;5036888;28;20210;-62
2023/08/06 00:05:35;;;;;;;3.45;2.90;;;;;;;;;;5055238;28;20683;-63
2023/08/06 00:08:03;;;;;;;2.70;2.50;;;;;;;;;;5037228;28;20299;-63
2023/08/06 00:10:30;;;;;;;2.97;2.50;;;;;;;;;;5049058;28;20275;-65
2023/08/06 00:12:57;;;;;;;2.60;2.40;;;;;;;;;;5049369;28;20201;-64
2023/08/06 00:15:25;;;;;;;2.92;2.15;;;;;;;;;;5032443;28;20210;-64
2023/08/06 00:17:52;;;;;;;3.40;2.20;;;;;;;;;;5054380;28;20205;-65
2023/08/06 00:20:20;;;;;;;2.22;2.03;;;;;;;;;;5053475;28;20317;-64
2023/08/06 00:22:47;;;;;;;3.03;2.40;;;;;;;;;;5051238;28;20254;-64
2023/08/06 00:25:14;;;;;;;2.60;2.40;;;;;;;;;;5059975;28;20201;-65
2023/08/06 00:27:42;;;;;;;2.47;2.38;;;;;;;;;;5056861;28;20228;-65
2023/08/06 00:30:09;;;;;;;2.92;2.58;;;;;;;;;;5051822;28;20225;-65
2023/08/06 00:32:36;;;;;;;2.55;2.35;;;;;;;;;;5054160;28;20252;-65
2023/08/06 00:35:04;;;;;;;2.67;2.47;;;;;;;;;;5056767;28;20218;-63
2023/08/06 00:37:31;;;;;;;2.70;2.55;;;;;;;;;;5045325;28;20206;-64
2023/08/06 00:39:59;;;;;;;2.75;2.50;;;;;;;;;;5044196;28;20219;-65
2023/08/06 00:42:26;;;;;;;2.78;2.58;;;;;;;;;;5035385;28;20210;-64
2023/08/06 00:44:53;;;;;;;3.15;2.78;;;;;;;;;;5053829;28;20198;-64
2023/08/06 00:47:21;;;;;;;3.78;2.70;;;;;;;;;;5055743;28;20316;-66
2023/08/06 00:49:48;;;;;;;3.17;2.80;;;;;;;;;;5055101;28;20218;-65
2023/08/06 00:52:15;;;;;;;2.70;2.50;;;;;;;;;;5054315;28;20198;-66
2023/08/06 00:54:43;;;;;;;2.63;2.42;;;;;;;;;;5058609;28;20343;-65
2023/08/06 00:57:10;;;;;;;4.45;2.92;;;;;;;;;;5053780;28;20264;-65
2023/08/06 00:59:38;;;;;;;4.65;3.03;;;;;;;;;;5046193;28;20313;-65
2023/08/06 01:02:05;;;;;;;2.80;2.55;;;;;;;;;;5051225;28;20206;-65
2023/08/06 01:04:33;;;;;;;3.60;2.78;;;;;;;;;;5058496;28;20871;-65
2023/08/06 01:07:21;;;;;;;2.80;2.60;;;;;;;;;;5039961;28;21553;-65
2023/08/06 01:09:58;;;;;;;2.90;2.70;;;;;;;;;;5054346;28;20225;-66
2023/08/06 01:12:30;;;;;;;2.83;2.50;;;;;;;;;;5033066;28;20210;-65
2023/08/06 01:15:08;;;;;;;3.30;2.65;;;;;;;;;;5056295;28;20215;-65
2023/08/06 01:17:36;;;;;;;6.90;2.88;;;;;;;;;;5060697;28;20270;-65
2023/08/06 01:20:04;;;;;;;3.03;2.72;;;;;;;;;;5054657;28;20222;-65
2023/08/06 01:22:31;;;;;;;3.28;2.97;;;;;;;;;;5053005;28;20276;-65
2023/08/06 01:24:59;;;;;;;2.92;2.50;;;;;;;;;;5057412;28;20328;-65
2023/08/06 01:27:34;;;;;;;3.53;2.30;;;;;;;;;;5041331;28;20228;-65
2023/08/06 01:30:04;;;;;;;2.23;2.13;;;;;;;;;;5056188;28;20582;-65
2023/08/06 01:32:32;;;;;;;4.63;2.33;;;;;;;;;;5062102;28;20213;-65
2023/08/06 01:35:01;;;;;;;2.78;2.38;;;;;;;;;;5061261;28;20196;-65
2023/08/06 01:37:28;;;;;;;4.43;2.60;;;;;;;;;;5056934;28;20272;-65
2023/08/06 01:39:55;;;;;;;2.83;2.63;;;;;;;;;;5062050;28;20221;-65
2023/08/06 01:42:23;;;;;;;2.60;2.47;;;;;;;;;;5059437;28;20615;-63
2023/08/06 01:44:50;;;;;;;2.47;2.27;;;;;;;;;;5057317;28;20266;-63
2023/08/06 01:47:17;;;;;;;2.88;2.45;;;;;;;;;;5042844;28;20315;-65
2023/08/06 01:49:45;;;;;;;3.40;2.30;;;;;;;;;;5054103;28;20786;-65
2023/08/06 01:52:12;;;;;;;2.58;2.20;;;;;;;;;;5050036;28;20210;-65
2023/08/06 01:54:39;;;;;;;2.65;2.40;;;;;;;;;;5049720;28;20276;-65
2023/08/06 01:57:07;;;;;;;3.28;2.65;;;;;;;;;;5042956;28;20236;-65
2023/08/06 01:59:34;;;;;;;2.38;2.13;;;;;;;;;;5058692;28;20283;-65
2023/08/06 02:02:01;;;;;;;3.88;2.50;;;;;;;;;;5058495;28;20239;-65
2023/08/06 02:04:29;;;;;;;2.70;2.50;;;;;;;;;;5054358;28;21267;-65
2023/08/06 02:06:56;;;;;;;2.45;2.20;;;;;;;;;;5056695;28;20239;-64
2023/08/06 02:09:24;;;;;;;4.73;2.40;;;;;;;;;;5055787;28;20233;-65
2023/08/06 02:11:51;;;;;;;2.78;2.58;;;;;;;;;;5056482;28;20640;-65
2023/08/06 02:14:19;;;;;;;2.75;2.45;;;;;;;;;;5052032;28;20644;-65
2023/08/06 02:16:46;;;;;;;3.20;2.38;;;;;;;;;;5050414;28;20880;-65
2023/08/06 02:19:13;;;;;;;3.20;2.33;;;;;;;;;;5061476;28;20386;-63
2023/08/06 02:21:41;;;;;;;2.60;2.40;;;;;;;;;;5041096;28;20201;-66
2023/08/06 02:24:08;;;;;;;3.27;2.30;;;;;;;;;;5060286;28;20210;-64
2023/08/06 02:26:35;;;;;;;3.87;2.47;;;;;;;;;;5041706;28;20221;-65
2023/08/06 02:29:03;;;;;;;3.63;2.70;;;;;;;;;;5045403;28;20253;-65
2023/08/06 02:31:30;;;;;;;2.83;2.33;;;;;;;;;;5062816;28;20569;-63
2023/08/06 02:33:58;;;;;;;3.40;2.37;;;;;;;;;;5062015;28;20227;-62
2023/08/06 02:36:29;;;;;;;5.23;2.37;;;;;;;;;;5062458;28;20206;-63
2023/08/06 02:38:56;;;;;;;3.83;2.70;;;;;;;;;;5040618;28;20282;-65
2023/08/06 02:41:25;;;;;;;3.60;2.67;;;;;;;;;;5062101;28;20263;-65
2023/08/06 02:43:53;;;;;;;2.83;2.10;;;;;;;;;;5062720;28;20209;-63
2023/08/06 02:46:20;;;;;;;2.73;2.33;;;;;;;;;;5066758;28;20225;-65
2023/08/06 02:48:47;;;;;;;5.50;2.30;;;;;;;;;;5045344;28;20225;-64
2023/08/06 02:51:15;;;;;;;3.63;2.30;;;;;;;;;;5058457;28;20198;-65
2023/08/06 02:53:42;;;;;;;2.27;2.07;;;;;;;;;;5037822;28;20206;-65
2023/08/06 02:56:09;;;;;;;2.77;2.20;;;;;;;;;;5052263;28;20225;-64
2023/08/06 02:58:37;;;;;;;2.10;2.00;;;;;;;;;;5055401;28;20221;-64
2023/08/06 03:01:05;;;;;;;3.30;2.30;;;;;;;;;;5044249;28;20206;-64
2023/08/06 03:03:33;;;;;;;4.60;2.00;;;;;;;;;;5066167;28;20220;-62
2023/08/06 03:06:01;;;;;;;2.93;2.10;;;;;;;;;;5055908;28;21027;-65
2023/08/06 03:08:28;;;;;;;2.30;2.10;;;;;;;;;;5055261;28;20413;-65
2023/08/06 03:10:56;;;;;;;3.90;2.00;;;;;;;;;;5037743;28;20872;-64
2023/08/06 03:13:23;;;;;;;3.73;1.93;;;;;;;;;;5057064;28;20224;-64
2023/08/06 03:15:57;;;;;;;3.10;2.03;;;;;;;;;;5060164;28;20203;-63
2023/08/06 03:18:25;;;;;;;3.13;2.00;;;;;;;;;;5043288;28;20228;-66
2023/08/06 03:20:53;;;;;;;2.13;1.90;;;;;;;;;;5050096;28;20210;-65
2023/08/06 03:23:21;;;;;;;2.77;2.17;;;;;;;;;;5061544;28;20205;-62
2023/08/06 03:25:48;;;;;;;2.30;2.10;;;;;;;;;;5060439;28;20582;-64
2023/08/06 03:28:16;;;;;;;2.33;2.10;;;;;;;;;;5050136;28;20232;-64
2023/08/06 03:30:43;;;;;;;4.50;2.20;;;;;;;;;;5041472;28;20984;-65
2023/08/06 03:33:11;;;;;;;4.50;2.37;;;;;;;;;;5039908;28;20839;-65
2023/08/06 03:35:38;;;;;;;2.43;2.20;;;;;;;;;;5043605;28;20248;-65
2023/08/06 03:38:05;;;;;;;2.50;2.23;;;;;;;;;;5053368;28;20217;-65
2023/08/06 03:40:35;;;;;;;2.63;2.40;;;;;;;;;;5036794;28;20213;-64
2023/08/06 03:43:03;;;;;;;3.60;2.37;;;;;;;;;;5038976;28;20209;-65
2023/08/06 03:45:30;;;;;;;2.83;2.53;;;;;;;;;;5031806;28;20680;-65
2023/08/06 03:47:58;;;;;;;4.37;2.67;;;;;;;;;;5050069;28;20216;-65
2023/08/06 03:50:25;;;;;;;3.47;2.20;;;;;;;;;;5051970;28;20206;-64
2023/08/06 03:52:53;;;;;;;2.63;2.40;;;;;;;;;;5048800;28;20270;-65
2023/08/06 03:55:20;;;;;;;4.77;2.23;;;;;;;;;;5035154;28;20216;-65
2023/08/06 03:57:48;;;;;;;2.90;2.60;;;;;;;;;;5037744;28;20206;-65
2023/08/06 04:00:16;;;;;;;2.60;2.40;;;;;;;;;;5030946;28;20232;-63
2023/08/06 04:02:43;;;;;;;3.63;2.43;;;;;;;;;;5046126;28;20237;-65
2023/08/06 04:05:11;;;;;;;4.80;2.63;;;;;;;;;;5050987;28;20202;-63
2023/08/06 04:07:39;;;;;;;3.20;2.50;;;;;;;;;;5036329;28;20218;-65
2023/08/06 04:10:06;;;;;;;2.73;2.30;;;;;;;;;;5049539;28;20242;-64
2023/08/06 04:12:36;;;;;;;4.55;2.40;;;;;;;;;;5046566;28;20222;-64
2023/08/06 04:15:04;;;;;;;2.57;2.30;;;;;;;;;;5049203;28;20209;-63
2023/08/06 04:17:31;;;;;;;2.43;2.23;;;;;;;;;;5040397;28;20202;-66
2023/08/06 04:19:59;;;;;;;4.03;2.50;;;;;;;;;;5037256;28;20224;-64
2023/08/06 04:22:26;;;;;;;2.53;2.33;;;;;;;;;;5047529;28;20241;-65
2023/08/06 04:24:54;;;;;;;2.43;2.23;;;;;;;;;;5038137;28;20328;-63
2023/08/06 04:27:21;;;;;;;2.97;2.60;;;;;;;;;;5043960;28;20269;-64
2023/08/06 04:29:49;;;;;;;5.43;2.57;;;;;;;;;;5047059;28;20225;-65
2023/08/06 04:32:17;;;;;;;3.50;2.30;;;;;;;;;;5043968;28;20291;-63
2023/08/06 04:34:44;;;;;;;3.00;2.50;;;;;;;;;;5046303;28;20202;-62
2023/08/06 04:37:11;;;;;;;3.43;2.33;;;;;;;;;;5048600;28;20209;-64
2023/08/06 04:39:38;;;;;;;3.73;2.50;;;;;;;;;;5049933;28;20321;-64
2023/08/06 04:42:06;;;;;;;3.07;2.70;;;;;;;;;;5050432;28;20604;-64
2023/08/06 04:44:33;;;;;;;2.70;2.50;;;;;;;;;;5045059;28;20211;-63
2023/08/06 04:47:01;;;;;;;5.57;3.00;;;;;;;;;;5035222;28;20279;-64
2023/08/06 04:49:28;;;;;;;5.30;2.63;;;;;;;;;;5049628;28;20233;-64
2023/08/06 04:51:55;;;;;;;3.13;2.10;;;;;;;;;;5038218;28;20197;-64
2023/08/06 04:54:23;;;;;;;4.90;2.10;;;;;;;;;;5044173;28;20275;-62
2023/08/06 04:56:50;;;;;;;3.07;1.90;;;;;;;;;;5057591;28;20202;-63
2023/08/06 04:59:17;;;;;;;3.50;2.13;;;;;;;;;;5054788;28;20217;-65
2023/08/06 05:01:45;;;;;;;2.37;2.00;;;;;;;;;;5057165;28;20205;-65
2023/08/06 05:04:12;;;;;;;2.20;2.00;;;;;;;;;;5052527;28;20628;-65
2023/08/06 05:06:41;;;;;;;2.03;1.80;;;;;;;;;;5056117;28;20198;-64
2023/08/06 05:09:08;;;;;;;1.90;1.73;;;;;;;;;;5054913;28;20226;-64
2023/08/06 05:11:35;;;;;;;3.00;1.90;;;;;;;;;;5048746;28;20226;-64
2023/08/06 05:14:03;;;;;;;2.50;1.65;;;;;;;;;;5045639;28;20211;-63
2023/08/06 05:16:30;;;;;;;1.80;1.45;;;;;;;;;;5056495;28;20284;-64
2023/08/06 05:18:57;;;;;;;2.17;1.60;;;;;;;;;;5039056;28;20251;-65
2023/08/06 05:21:25;;;;;;;2.37;1.50;;;;;;;;;;5045730;28;20202;-65
2023/08/06 05:23:52;;;;;;;1.50;1.10;;;;;;;;;;5051601;28;20198;-63
2023/08/06 05:26:19;;;;;;;2.20;1.10;;;;;;;;;;5039112;28;20206;-65
2023/08/06 05:28:47;;;;;;;1.95;1.17;;;;;;;;;;5042790;28;20237;-62
2023/08/06 05:31:14;;;;;;;1.43;1.00;;;;;;;;;;5047064;28;20866;-63
2023/08/06 05:33:41;;;;;;;1.73;1.00;;;;;;;;;;5042401;28;20663;-63
2023/08/06 05:36:09;;;;;;;1.13;1.00;;;;;;;;;;5051386;28;20728;-65
2023/08/06 05:38:36;;;;;;;2.70;1.10;;;;;;;;;;5054158;28;20222;-65
2023/08/06 05:41:03;;;;;;;2.27;1.00;;;;;;;;;;5036624;28;20206;-65
2023/08/06 05:43:34;;;;;;;1.00;1.00;;;;;;;;;;5048263;28;20213;-65
2023/08/06 05:46:04;;;;;;;0.80;0.75;;;;;;;;;;5054569;28;20214;-64
2023/08/06 05:48:32;;;;;;;3.00;0.90;;;;;;;;;;5051261;28;20692;-65
2023/08/06 05:51:00;;;;;;;1.40;0.85;;;;;;;;;;5049709;28;20552;-64
2023/08/06 05:53:27;;;;;;;1.95;0.82;;;;;;;;;;5058017;28;20579;-63
2023/08/06 05:55:55;;;;;;;0.50;0.50;;;;;;;;;;5049553;28;20626;-65
2023/08/06 05:58:24;;;;;;;0.60;0.60;;;;;;;;;;5034536;28;20312;-65
2023/08/06 06:00:52;;;;;;;1.05;0.77;;;;;;;;;;5058226;28;20201;-63
2023/08/06 06:03:19;;;;;;;0.70;0.70;;;;;;;;;;5049777;28;20221;-65
2023/08/06 06:05:46;;;;;;;0.82;0.73;;;;;;;;;;5032460;28;20344;-65
2023/08/06 06:08:13;;;;;;;0.98;0.80;;;;;;;;;;5047748;28;20229;-64
2023/08/06 06:10:41;;;;;;;2.60;1.05;;;;;;;;;;5047290;28;20214;-64
2023/08/06 06:13:09;;;;;;;0.95;0.70;;;;;;;;;;5035821;28;20699;-65
2023/08/06 06:15:37;;;;;;;0.85;0.70;;;;;;;;;;5029750;28;20203;-65
2023/08/06 06:18:05;;;;;;;1.15;0.90;;;;;;;;;;5030881;28;20232;-65
2023/08/06 06:20:33;;;;;;;0.70;0.70;;;;;;;;;;5044875;28;20197;-65
2023/08/06 06:23:00;;;;;;;1.45;0.80;;;;;;;;;;5047907;28;20217;-63
2023/08/06 06:25:28;;;;;;;0.60;0.60;;;;;;;;;;5047955;28;20214;-64
2023/08/06 06:27:58;;;;;;;1.02;0.80;;;;;;;;;;5028512;28;20690;-65
2023/08/06 06:30:25;;;;;;;0.70;0.70;;;;;;;;;;5050049;28;20218;-65
2023/08/06 06:32:53;;;;;;;0.82;0.82;;;;;;;;;;5050642;28;20201;-65
2023/08/06 06:35:20;;;;;;;1.15;0.68;;;;;;;;;;5044419;28;20201;-66
2023/08/06 06:37:49;;;;;;;1.67;0.90;;;;;;;;;;5050988;28;20220;-65
2023/08/06 06:40:16;;;;;;;0.80;0.80;;;;;;;;;;5047623;28;20237;-65
2023/08/06 06:42:44;;;;;;;1.08;0.93;;;;;;;;;;5040100;28;20222;-66
2023/08/06 06:45:11;;;;;;;0.80;0.80;;;;;;;;;;5036879;28;20288;-66
2023/08/06 06:47:38;;;;;;;0.98;0.90;;;;;;;;;;5041644;28;20214;-64
2023/08/06 06:50:06;;;;;;;1.30;0.68;;;;;;;;;;5031218;28;20335;-65
2023/08/06 06:52:33;;;;;;;2.10;0.80;;;;;;;;;;5035279;28;20202;-65
2023/08/06 06:55:01;;;;;;;0.80;0.77;;;;;;;;;;5055693;28;20251;-65
2023/08/06 06:57:28;;;;;;;0.65;0.65;;;;;;;;;;5046071;28;20205;-65
2023/08/06 06:59:55;;;;;;;1.33;0.73;;;;;;;;;;5047986;28;20229;-65
2023/08/06 07:02:23;;;;;;;0.93;0.70;;;;;;;;;;5052162;28;20206;-66
2023/08/06 07:04:50;;;;;;;0.60;0.60;;;;;;;;;;5051072;28;20214;-65
2023/08/06 07:07:18;;;;;;;1.85;0.70;;;;;;;;;;5037823;28;20210;-65
2023/08/06 07:09:45;;;;;;;1.95;0.70;;;;;;;;;;5028636;28;20710;-65
2023/08/06 07:12:13;;;;;;;0.73;0.73;;;;;;;;;;5048885;28;20198;-65
2023/08/06 07:14:40;;;;;;;0.65;0.60;;;;;;;;;;5036752;28;20206;-66
2023/08/06 07:17:07;;;;;;;1.20;0.70;;;;;;;;;;5050345;28;20213;-66
2023/08/06 07:19:35;;;;;;;0.60;0.60;;;;;;;;;;5051200;28;20723;-63
2023/08/06 07:22:02;;;;;;;1.58;0.68;;;;;;;;;;5050250;28;20729;-64
2023/08/06 07:24:29;;;;;;;1.08;0.63;;;;;;;;;;5046817;28;20217;-64
2023/08/06 07:26:57;;;;;;;0.52;0.52;;;;;;;;;;5035344;28;20205;-65
2023/08/06 07:29:25;;;;;;;0.50;0.50;;;;;;;;;;5049552;28;20763;-64
2023/08/06 07:31:52;;;;;;;0.52;0.52;;;;;;;;;;5035185;28;20209;-64
2023/08/06 07:34:20;;;;;;;1.08;0.85;;;;;;;;;;5047532;28;20342;-65
2023/08/06 07:36:47;;;;;;;0.40;0.40;;;;;;;;;;5049087;28;20278;-66
2023/08/06 07:39:16;;;;;;;0.47;0.47;;;;;;;;;;5045383;28;20742;-64
2023/08/06 07:41:45;;;;;;;1.17;0.40;;;;;;;;;;5047656;28;20242;-63
2023/08/06 07:44:13;;;;;;;0.40;0.40;;;;;;;;;;5027568;28;20296;-65
2023/08/06 07:46:40;;;;;;;0.68;0.47;;;;;;;;;;5046668;28;20206;-63
2023/08/06 07:49:08;;;;;;;1.03;0.63;;;;;;;;;;5039609;28;20233;-65
2023/08/06 07:51:35;;;;;;;0.30;0.30;;;;;;;;;;5048579;28;20210;-63
2023/08/06 07:54:03;;;;;;;0.60;0.50;;;;;;;;;;5030871;28;20237;-64
2023/08/06 07:56:30;;;;;;;0.67;0.50;;;;;;;;;;5032822;28;20198;-65
2023/08/06 07:58:57;;;;;;;0.40;0.40;;;;;;;;;;5035224;28;20225;-65
2023/08/06 08:01:25;;;;;;;0.97;0.50;;;;;;;;;;5016342;28;20213;-65
2023/08/06 08:03:52;;;;;;;0.40;0.40;;;;;;;;;;5018009;28;20221;-65
2023/08/06 08:06:20;;;;;;;0.52;0.50;;;;;;;;;;5038285;28;20225;-65
2023/08/06 08:08:47;;;;;;;0.90;0.90;;;;;;;;;;5035657;28;20257;-65
2023/08/06 08:11:16;;;;;;;1.30;0.50;;;;;;;;;;5032247;28;20240;-65
2023/08/06 08:13:43;;;;;;;0.50;0.50;;;;;;;;;;5036625;28;20226;-65
2023/08/06 08:16:10;;;;;;;0.52;0.50;;;;;;;;;;5040141;28;20214;-65
2023/08/06 08:18:39;;;;;;;2.53;0.50;;;;;;;;;;5009402;28;20236;-65
2023/08/06 08:21:06;;;;;;;0.55;0.55;;;;;;;;;;5025479;28;20279;-65
2023/08/06 08:23:34;;;;;;;0.50;0.50;;;;;;;;;;5020819;28;20300;-64
2023/08/06 08:26:02;;;;;;;0.40;0.40;;;;;;;;;;5038125;28;20198;-64
2023/08/06 08:28:29;;;;;;;0.40;0.40;;;;;;;;;;5044594;28;20236;-63
2023/08/06 08:30:57;;;;;;;0.47;0.43;;;;;;;;;;5038364;28;20197;-66
2023/08/06 08:33:25;;;;;;;0.67;0.67;;;;;;;;;;5041598;28;20205;-65
2023/08/06 08:35:53;;;;;;;1.27;0.53;;;;;;;;;;5031019;28;20211;-65
2023/08/06 08:38:21;;;;;;;0.40;0.40;;;;;;;;;;5046315;28;20230;-65
2023/08/06 08:40:51;;;;;;;0.77;0.40;;;;;;;;;;5036857;28;20773;-64
2023/08/06 08:43:21;;;;;;;0.60;0.60;;;;;;;;;;5030389;28;20290;-65
2023/08/06 08:45:50;;;;;;;1.47;0.70;;;;;;;;;;5043240;28;20222;-64
2023/08/06 08:48:19;;;;;;;0.60;0.60;;;;;;;;;;5033545;28;20584;-64
2023/08/06 08:50:47;;;;;;;0.40;0.40;;;;;;;;;;5035194;28;20723;-64
2023/08/06 08:53:16;;;;;;;0.50;0.50;;;;;;;;;;5036717;28;20194;-65
2023/08/06 08:55:44;;;;;;;0.60;0.60;;;;;;;;;;5028561;28;20217;-64
2023/08/06 08:58:12;;;;;;;0.67;0.60;;;;;;;;;;5039502;28;20209;-65
2023/08/06 09:00:41;;;;;;;0.50;0.50;;;;;;;;;;5043556;28;20202;-64
2023/08/06 09:03:09;;;;;;;0.40;0.40;;;;;;;;;;5031884;28;20214;-65
2023/08/06 09:05:37;;;;;;;0.50;0.50;;;;;;;;;;5034276;28;20271;-64
2023/08/06 09:08:05;;;;;;;0.60;0.60;;;;;;;;;;5031527;28;20230;-65
2023/08/06 09:10:33;;;;;;;0.40;0.40;;;;;;;;;;5037785;28;20260;-64
2023/08/06 09:13:02;;;;;;;0.50;0.50;;;;;;;;;;5035284;28;20209;-63
2023/08/06 09:15:30;;;;;;;0.40;0.40;;;;;;;;;;5043418;28;20214;-63
2023/08/06 09:17:58;;;;;;;0.40;0.40;;;;;;;;;;5042877;28;20210;-66
2023/08/06 09:20:25;;;;;;;0.40;0.40;;;;;;;;;;5039926;28;20714;-63
2023/08/06 09:22:56;;;;;;;0.40;0.40;;;;;;;;;;5025802;28;20201;-64
2023/08/06 09:25:24;;;;;;;0.60;0.60;;;;;;;;;;5045027;28;20203;-63
2023/08/06 09:27:52;;;;;;;0.50;0.50;;;;;;;;;;5044083;28;20811;-63
2023/08/06 09:30:31;;;;;;;0.60;0.60;;;;;;;;;;5040215;28;20853;-63
2023/08/06 09:32:59;;;;;;;0.67;0.67;;;;;;;;;;5042754;28;20300;-63
2023/08/06 09:35:29;;;;;;;0.70;0.70;;;;;;;;;;5044927;28;20681;-63
2023/08/06 09:38:15;;;;;;;0.50;0.50;;;;;;;;;;5043881;28;20248;-64
2023/08/06 09:40:42;;;;;;;0.60;0.60;;;;;;;;;;5030091;28;20256;-63
2023/08/06 09:43:12;;;;;;;0.95;0.50;;;;;;;;;;5023714;28;20288;-63
2023/08/06 09:45:40;;;;;;;1.30;1.20;;;;;;;;;;5046369;28;20225;-63
2023/08/06 09:48:09;;;;;;;13.30;8.70;;;;;;;;;;5046092;28;20197;-63
2023/08/06 09:50:37;;;;;;;0.80;0.80;;;;;;;;;;5040716;28;20237;-63
2023/08/06 09:53:08;;;;;;;0.50;0.50;;;;;;;;;;5043456;28;20284;-61
2023/08/06 09:55:36;;;;;;;0.52;0.52;;;;;;;;;;5044640;28;20268;-61
2023/08/06 09:58:04;;;;;;;0.87;0.67;;;;;;;;;;5047546;28;20663;-63
2023/08/06 10:00:33;;;;;;;0.50;0.50;;;;;;;;;;5039113;28;20208;-64
2023/08/06 10:03:05;;;;;;;0.50;0.50;;;;;;;;;;5027765;28;20214;-63
2023/08/06 10:05:33;;;;;;;0.60;0.50;;;;;;;;;;5048149;28;20201;-64
2023/08/06 10:08:02;;;;;;;0.60;0.60;;;;;;;;;;5027038;28;20239;-64
2023/08/06 10:10:30;;;;;;;1.60;1.50;;;;;;;;;;5045546;28;20280;-64
2023/08/06 10:12:58;;;;;;;2.33;0.60;;;;;;;;;;5036844;28;22137;-63
2023/08/06 10:15:27;;;;;;;0.50;0.50;;;;;;;;;;5037913;28;20198;-61
2023/08/06 10:17:56;;;;;;;0.70;0.70;;;;;;;;;;5030957;28;20356;-63
2023/08/06 10:20:24;;;;;;;1.00;1.00;;;;;;;;;;5044998;28;20316;-63
2023/08/06 10:23:03;;;;;;;0.50;0.50;;;;;;;;;;5041633;28;20218;-63
2023/08/06 10:25:34;;;;;;;0.60;0.50;;;;;;;;;;5044502;28;20280;-61
2023/08/06 10:28:17;;;;;;;0.50;0.50;;;;;;;;;;5030356;28;20521;-63
2023/08/06 10:30:46;;;;;;;2.93;0.70;;;;;;;;;;5045681;28;20373;-61
2023/08/06 10:33:13;;;;;;;0.90;0.70;;;;;;;;;;5046056;28;20553;-64
2023/08/06 10:35:45;;;;;;;1.70;1.30;;;;;;;;;;5048130;28;20213;-64
2023/08/06 10:38:14;;;;;;;1.10;1.10;;;;;;;;;;5022034;28;20205;-64
2023/08/06 10:40:49;;;;;;;2.30;1.30;;;;;;;;;;5024201;28;20683;-64
2023/08/06 10:43:41;;;;;;;1.23;1.03;;;;;;;;;;5039462;28;20233;-64
2023/08/06 10:46:21;;;;;;;0.50;0.50;;;;;;;;;;5041051;28;20292;-63
2023/08/06 10:48:52;;;;;;;0.90;0.90;;;;;;;;;;5030486;28;20225;-63
2023/08/06 10:51:19;;;;;;;0.80;0.80;;;;;;;;;;5026208;28;20558;-63
2023/08/06 10:53:47;;;;;;;1.07;0.80;;;;;;;;;;5047985;28;20338;-62
2023/08/06 10:56:15;;;;;;;1.97;1.30;;;;;;;;;;5040895;28;20201;-62
2023/08/06 10:58:43;;;;;;;0.70;0.70;;;;;;;;;;5046206;28;20410;-61
2023/08/06 11:01:11;;;;;;;4.63;0.90;;;;;;;;;;5048127;28;20202;-62
2023/08/06 11:03:39;;;;;;;0.70;0.70;;;;;;;;;;5049637;28;20214;-64
2023/08/06 11:06:10;;;;;;;0.60;0.60;;;;;;;;;;5042861;28;20217;-63
2023/08/06 11:08:38;;;;;;;0.60;0.60;;;;;;;;;;5019046;28;20495;-65
2023/08/06 11:11:10;;;;;;;0.67;0.67;;;;;;;;;;5039874;28;20205;-64
2023/08/06 11:13:38;;;;;;;2.50;1.17;;;;;;;;;;5046145;28;20674;-63
2023/08/06 11:16:06;;;;;;;0.97;0.97;;;;;;;;;;5039167;28;21096;-64
2023/08/06 11:18:33;;;;;;;0.50;0.50;;;;;;;;;;5043547;28;20275;-63
2023/08/06 11:21:01;;;;;;;0.63;0.63;;;;;;;;;;5039062;28;20634;-64
2023/08/06 11:23:28;;;;;;;0.80;0.80;;;;;;;;;;5040243;28;20218;-64
2023/08/06 11:25:57;;;;;;;0.63;0.63;;;;;;;;;;5041709;28;20202;-63
2023/08/06 11:28:25;;;;;;;0.50;0.50;;;;;;;;;;5043752;28;20263;-63
2023/08/06 11:30:53;;;;;;;0.63;0.63;;;;;;;;;;5043064;28;20197;-62
2023/08/06 11:33:27;;;;;;;0.60;0.60;;;;;;;;;;5044570;28;20319;-63
2023/08/06 11:35:58;;;;;;;0.70;0.70;;;;;;;;;;5047619;28;20198;-63
2023/08/06 11:38:31;;;;;;;0.77;0.77;;;;;;;;;;5043517;28;20218;-61
2023/08/06 11:40:58;;;;;;;2.47;2.27;;;;;;;;;;5043228;28;20205;-63
2023/08/06 11:43:26;;;;;;;7.67;5.87;;;;;;;;;;5029253;28;20206;-63
2023/08/06 11:45:56;;;;;;;1.47;1.37;;;;;;;;;;5042572;28;20202;-63
2023/08/06 11:48:23;;;;;;;4.33;3.97;;;;;;;;;;5043871;28;20257;-64
2023/08/06 11:50:55;;;;;;;0.80;0.80;;;;;;;;;;5046330;28;20217;-63
2023/08/06 11:53:28;;;;;;;1.30;1.20;;;;;;;;;;5050904;28;20206;-63
2023/08/06 11:55:56;;;;;;;1.57;1.53;;;;;;;;;;5045521;28;20208;-64
2023/08/06 11:58:25;;;;;;;4.77;4.17;;;;;;;;;;5046010;28;20234;-63
2023/08/06 12:00:52;;;;;;;2.70;1.80;;;;;;;;;;5044564;28;20201;-63
2023/08/06 12:03:20;;;;;;;4.90;3.80;;;;;;;;;;5043175;28;20603;-63
2023/08/06 12:05:48;;;;;;;2.80;2.60;;;;;;;;;;5041215;28;20209;-64
2023/08/06 12:08:15;;;;;;;2.63;2.07;;;;;;;;;;5047612;28;20799;-65
2023/08/06 12:10:42;;;;;;;4.67;3.33;;;;;;;;;;5048717;28;20232;-65
2023/08/06 12:13:09;;;;;;;2.37;2.17;;;;;;;;;;5040467;28;20284;-64
2023/08/06 12:15:37;;;;;;;2.03;1.83;;;;;;;;;;5044973;28;20199;-62
2023/08/06 12:18:04;;;;;;;5.23;2.30;;;;;;;;;;5043843;28;20206;-64
2023/08/06 12:20:32;;;;;;;1.30;1.30;;;;;;;;;;5040959;28;20202;-66
2023/08/06 12:22:59;;;;;;;1.60;1.10;;;;;;;;;;5042923;28;20206;-63
2023/08/06 12:25:27;;;;;;;0.70;0.70;;;;;;;;;;5033888;28;20217;-63
2023/08/06 12:27:55;;;;;;;0.87;0.70;;;;;;;;;;5034840;28;20210;-62
2023/08/06 12:30:23;;;;;;;0.50;0.50;;;;;;;;;;5037220;28;20240;-64
2023/08/06 12:32:51;;;;;;;0.70;0.70;;;;;;;;;;5042894;28;20209;-64
2023/08/06 12:35:19;;;;;;;0.70;0.70;;;;;;;;;;5042431;28;20207;-62
2023/08/06 12:37:47;;;;;;;0.77;0.77;;;;;;;;;;5033654;28;20201;-61
2023/08/06 12:40:14;;;;;;;0.70;0.70;;;;;;;;;;5043101;28;20235;-64
2023/08/06 12:43:02;;;;;;;0.80;0.80;;;;;;;;;;5036726;28;20810;-64
2023/08/06 12:45:33;;;;;;;1.00;1.00;;;;;;;;;;5048173;28;20220;-63
2023/08/06 12:48:01;;;;;;;1.57;1.20;;;;;;;;;;5045713;28;20900;-63
2023/08/06 12:50:32;;;;;;;3.57;3.20;;;;;;;;;;5041911;28;20214;-65
2023/08/06 12:53:01;;;;;;;4.07;3.67;;;;;;;;;;5024712;28;20267;-67
2023/08/06 12:55:28;;;;;;;4.77;4.33;;;;;;;;;;5034579;28;20265;-67
2023/08/06 12:57:59;;;;;;;1.40;1.30;;;;;;;;;;5035309;28;20697;-67
2023/08/06 13:00:27;;;;;;;4.77;4.30;;;;;;;;;;5048041;28;20714;-64
2023/08/06 13:02:55;;;;;;;1.70;1.60;;;;;;;;;;5044649;28;20229;-66
2023/08/06 13:05:22;;;;;;;2.03;1.93;;;;;;;;;;5046248;28;20786;-64
2023/08/06 13:07:49;;;;;;;1.33;1.33;;;;;;;;;;5039217;28;20332;-64
2023/08/06 13:10:17;;;;;;;2.10;2.00;;;;;;;;;;5035097;28;20853;-65
2023/08/06 13:12:51;;;;;;;2.50;2.30;;;;;;;;;;5051028;28;20198;-66
2023/08/06 13:15:20;;;;;;;1.47;1.37;;;;;;;;;;5057646;28;20202;-64
2023/08/06 13:17:48;;;;;;;1.87;1.77;;;;;;;;;;5052360;28;20221;-63
2023/08/06 13:20:15;;;;;;;1.23;1.13;;;;;;;;;;5051689;28;20310;-66
2023/08/06 13:22:46;;;;;;;2.30;1.30;;;;;;;;;;5046201;28;20217;-63
2023/08/06 13:25:15;;;;;;;1.77;1.13;;;;;;;;;;5035436;28;20214;-66
2023/08/06 13:27:47;;;;;;;1.90;1.80;;;;;;;;;;5038376;28;20206;-68
2023/08/06 13:30:15;;;;;;;1.70;1.60;;;;;;;;;;5043111;28;20240;-64
2023/08/06 13:32:42;;;;;;;2.80;2.60;;;;;;;;;;5052817;28;20198;-63
2023/08/06 13:35:09;;;;;;;1.00;1.00;;;;;;;;;;5054209;28;20568;-63
2023/08/06 13:37:37;;;;;;;1.03;1.00;;;;;;;;;;5032052;28;20201;-67
2023/08/06 13:40:04;;;;;;;3.43;3.17;;;;;;;;;;5051971;28;20229;-62
2023/08/06 13:42:32;;;;;;;3.00;2.10;;;;;;;;;;5041600;28;20217;-67
2023/08/06 13:45:03;;;;;;;2.17;1.20;;;;;;;;;;5045488;28;20205;-65
2023/08/06 13:47:31;;;;;;;3.07;2.87;;;;;;;;;;5043968;28;20218;-66
2023/08/06 13:49:58;;;;;;;1.77;1.67;;;;;;;;;;5035929;28;20322;-64
2023/08/06 13:52:26;;;;;;;1.17;1.17;;;;;;;;;;5046466;28;20198;-67
2023/08/06 13:54:54;;;;;;;1.20;1.20;;;;;;;;;;5049701;28;20194;-65
2023/08/06 13:57:21;;;;;;;1.10;1.10;;;;;;;;;;5047608;28;20288;-64
2023/08/06 13:59:48;;;;;;;1.23;1.23;;;;;;;;;;5033221;28;20225;-62
2023/08/06 14:02:16;;;;;;;0.80;0.80;;;;;;;;;;5034893;28;20206;-66
2023/08/06 14:04:43;;;;;;;0.80;0.80;;;;;;;;;;5043966;28;20194;-62
2023/08/06 14:07:10;;;;;;;0.70;0.70;;;;;;;;;;5046557;28;20205;-64
2023/08/06 14:09:38;;;;;;;0.70;0.70;;;;;;;;;;5043089;28;20240;-65
2023/08/06 14:12:07;;;;;;;0.73;0.73;;;;;;;;;;5034342;28;20214;-63
2023/08/06 14:14:34;;;;;;;0.50;0.50;;;;;;;;;;5051996;28;20206;-67
2023/08/06 14:17:01;;;;;;;0.80;0.80;;;;;;;;;;5045791;28;20287;-64
2023/08/06 14:19:29;;;;;;;0.73;0.70;;;;;;;;;;5042474;28;20253;-64
2023/08/06 14:21:57;;;;;;;1.43;0.90;;;;;;;;;;5036283;28;21019;-66
2023/08/06 14:24:24;;;;;;;0.80;0.80;;;;;;;;;;5030970;28;20369;-68
2023/08/06 14:26:51;;;;;;;0.80;0.80;;;;;;;;;;5050190;28;20209;-66
2023/08/06 14:29:20;;;;;;;0.80;0.80;;;;;;;;;;5044933;28;20265;-64
2023/08/06 14:35:10;;;;;;;0.77;0.77;;;;;;;;;;4978276;28;20302;-75
2023/08/06 14:37:39;;;;;;;0.80;0.80;;;;;;;;;;4995494;28;22086;-76
2023/08/06 14:40:11;;;;;;;0.80;0.80;;;;;;;;;;4992368;28;20235;-74
2023/08/06 14:42:42;;;;;;;0.93;0.70;;;;;;;;;;5001570;28;20211;-76
2023/08/06 14:45:13;;;;;;;5.67;4.17;;;;;;;;;;4999095;28;21892;-74
2023/08/06 14:47:40;;;;;;;1.23;1.03;;;;;;;;;;5005565;28;20617;-76
2023/08/06 14:50:08;;;;;;;0.87;0.87;;;;;;;;;;4997499;28;21828;-75
2023/08/06 14:52:36;;;;;;;1.63;1.20;;;;;;;;;;4997436;28;20221;-74